This is the latest recevied weather packets stored in our database for station/object SP9INZ-13. If no packets are shown the sender has not sent any weather packets the latest 10 day(s).
| Time | Temp. | Humidity | Pressure | Rain* | Wind** | Luminosity | Snow |
|---|---|---|---|---|---|---|---|
| 1777707051 | 18.33° C | 48% | 1028.7 hPa | - | - | - | - |
| 1777706091 | 18.33° C | 48% | 1028.9 hPa | - | - | - | - |
| 1777705133 | 16.67° C | 55% | 1028.5 hPa | - | - | - | - |
| 1777704176 | 17.78° C | 52% | 1028.3 hPa | - | - | - | - |
| 1777703219 | 17.22° C | 52% | 1028.4 hPa | - | - | - | - |
| 1777702259 | 14.44° C | 61% | 1028.9 hPa | - | - | - | - |
| 1777701301 | 14.44° C | 60% | 1028.9 hPa | - | - | - | - |
| 1777700344 | 14.44° C | 61% | 1028.5 hPa | - | - | - | - |
| 1777699386 | 12.22° C | 65% | 1029.4 hPa | - | - | - | - |
| 1777698427 | 13.33° C | 64% | 1028.9 hPa | - | - | - | - |
| 1777697469 | 13.33° C | 62% | 1028.9 hPa | - | - | - | - |
| 1777696511 | 11.11° C | 69% | 1029.1 hPa | - | - | - | - |
| 1777695555 | 11.11° C | 69% | 1029 hPa | - | - | - | - |
| 1777694595 | 12.22° C | 66% | 1028.6 hPa | - | - | - | - |
| 1777693638 | 11.67° C | 67% | 1029 hPa | - | - | - | - |
| 1777692680 | 11.11° C | 68% | 1029 hPa | - | - | - | - |
| 1777691721 | 10.56° C | 70% | 1029.2 hPa | - | - | - | - |
| 1777690763 | 11.67° C | 67% | 1029 hPa | - | - | - | - |
| 1777689805 | 12.22° C | 65% | 1028.9 hPa | - | - | - | - |
| 1777688848 | 10.56° C | 71% | 1029.3 hPa | - | - | - | - |
| 1777687889 | 10° C | 72% | 1029.5 hPa | - | - | - | - |
| 1777686931 | 13.89° C | 59% | 1029.1 hPa | - | - | - | - |
| 1777685973 | 13.89° C | 59% | 1029.1 hPa | - | - | - | - |
| 1777685015 | 12.78° C | 63% | 1029.6 hPa | - | - | - | - |
| 1777684057 | 11.67° C | 65% | 1030 hPa | - | - | - | - |
* Rain since midnight (hover to see other rain measurements)
** Current wind speed in m/s (hover to see current wind gust speed)